createdAt,value
2023-02-02T00:00:36.196Z,3.02
2023-02-02T00:01:36.164Z,3.06
2023-02-02T00:02:36.210Z,3.10
2023-02-02T00:03:36.139Z,3.13
2023-02-02T00:04:36.146Z,3.14
2023-02-02T00:05:36.100Z,3.15
2023-02-02T00:06:36.108Z,3.15
2023-02-02T00:07:36.090Z,3.14
2023-02-02T00:08:36.076Z,3.15
2023-02-02T00:09:36.072Z,3.19
2023-02-02T00:10:36.107Z,3.24
2023-02-02T00:11:36.044Z,3.28
2023-02-02T00:12:36.018Z,3.31
2023-02-02T00:13:36.019Z,3.34
2023-02-02T00:14:36.011Z,3.37
2023-02-02T00:15:35.987Z,3.38
2023-02-02T00:16:35.984Z,3.39
2023-02-02T00:17:35.973Z,3.40
2023-02-02T00:18:35.965Z,3.41
2023-02-02T00:19:35.937Z,3.42
2023-02-02T00:20:35.923Z,3.41
2023-02-02T00:21:35.891Z,3.41
2023-02-02T00:22:35.891Z,3.42
2023-02-02T00:23:35.886Z,3.45
2023-02-02T00:24:35.864Z,3.50
2023-02-02T00:25:35.879Z,3.54
2023-02-02T00:26:35.849Z,3.58
2023-02-02T00:27:35.829Z,3.60
2023-02-02T00:28:35.833Z,3.61
2023-02-02T00:29:35.831Z,3.62
2023-02-02T00:30:35.806Z,3.65
2023-02-02T00:31:35.817Z,3.68
2023-02-02T00:32:35.760Z,3.72
2023-02-02T00:33:35.781Z,3.76
2023-02-02T00:34:35.733Z,3.79
2023-02-02T00:35:35.734Z,3.83
2023-02-02T00:36:35.714Z,3.87
2023-02-02T00:37:35.709Z,3.91
2023-02-02T00:38:35.688Z,3.93
2023-02-02T00:39:35.654Z,3.94
2023-02-02T00:40:35.672Z,3.94
2023-02-02T00:41:35.651Z,3.93
2023-02-02T00:42:35.627Z,3.92
2023-02-02T00:43:35.626Z,3.90
2023-02-02T00:44:35.598Z,3.89
2023-02-02T00:45:35.619Z,3.89
2023-02-02T00:46:35.583Z,3.89
2023-02-02T00:47:35.567Z,3.88
2023-02-02T00:48:35.564Z,3.90
2023-02-02T00:49:35.529Z,3.93
2023-02-02T00:50:35.540Z,3.96
2023-02-02T00:51:35.497Z,3.97
2023-02-02T00:52:35.493Z,3.98
2023-02-02T00:53:35.539Z,3.99
2023-02-02T00:54:35.459Z,3.99
2023-02-02T00:55:35.444Z,3.98
2023-02-02T00:56:35.462Z,3.98
2023-02-02T00:57:35.422Z,3.99
2023-02-02T00:58:35.455Z,3.98
2023-02-02T00:59:35.405Z,3.96
2023-02-02T01:00:58.984Z,3.94
2023-02-02T01:01:35.380Z,3.91
2023-02-02T01:02:35.357Z,3.88
2023-02-02T01:03:35.354Z,3.88
2023-02-02T01:04:35.336Z,3.89
2023-02-02T01:05:35.314Z,3.89
2023-02-02T01:06:35.321Z,3.88
2023-02-02T01:07:35.294Z,3.88
2023-02-02T01:08:35.341Z,3.89
2023-02-02T01:09:35.277Z,3.92
2023-02-02T01:10:35.285Z,3.96
2023-02-02T01:11:35.255Z,3.98
2023-02-02T01:12:35.245Z,3.99
2023-02-02T01:13:35.204Z,3.98
2023-02-02T01:14:35.244Z,3.97
2023-02-02T01:15:35.180Z,3.94
2023-02-02T01:16:35.251Z,3.90
2023-02-02T01:17:35.193Z,3.87
2023-02-02T01:18:35.161Z,3.85
2023-02-02T01:19:35.151Z,3.86
2023-02-02T01:20:35.148Z,3.86
2023-02-02T01:21:35.107Z,3.86
2023-02-02T01:22:35.133Z,3.84
2023-02-02T01:23:35.079Z,3.84
2023-02-02T01:24:35.071Z,3.84
2023-02-02T01:25:35.145Z,3.83
2023-02-02T01:26:35.054Z,3.81
2023-02-02T01:27:35.027Z,3.77
2023-02-02T01:28:35.030Z,3.73
2023-02-02T01:29:35.013Z,3.70
2023-02-02T01:30:35.011Z,3.70
2023-02-02T01:31:35.003Z,3.69
2023-02-02T01:32:34.977Z,3.68
2023-02-02T01:33:34.957Z,3.67
2023-02-02T01:34:34.955Z,3.65
2023-02-02T01:35:34.914Z,3.64
2023-02-02T01:36:34.907Z,3.62
2023-02-02T01:37:34.899Z,3.61
2023-02-02T01:38:34.907Z,3.61
2023-02-02T01:39:34.886Z,3.60
2023-02-02T01:40:34.860Z,3.60
2023-02-02T01:41:34.889Z,3.60
2023-02-02T01:42:34.852Z,3.60
2023-02-02T01:43:34.809Z,3.60
2023-02-02T01:44:34.825Z,3.61
2023-02-02T01:45:34.823Z,3.64
2023-02-02T01:46:34.782Z,3.69
2023-02-02T01:47:34.765Z,3.70
2023-02-02T01:48:34.752Z,3.69
2023-02-02T01:49:34.747Z,3.67
2023-02-02T01:50:34.728Z,3.65
2023-02-02T01:51:34.721Z,3.62
2023-02-02T01:52:34.716Z,3.58
2023-02-02T01:53:34.704Z,3.56
2023-02-02T01:54:34.686Z,3.54
2023-02-02T01:55:34.670Z,3.52
2023-02-02T01:56:34.658Z,3.51
2023-02-02T01:57:34.642Z,3.50
2023-02-02T01:58:34.615Z,3.50
2023-02-02T01:59:34.601Z,3.51
2023-02-02T02:00:34.586Z,3.51
2023-02-02T02:01:34.651Z,3.52
2023-02-02T02:02:34.669Z,3.53
2023-02-02T02:03:34.543Z,3.55
2023-02-02T02:04:34.560Z,3.56
2023-02-02T02:05:34.519Z,3.57
2023-02-02T02:06:34.529Z,3.56
2023-02-02T02:07:34.501Z,3.53
2023-02-02T02:08:34.488Z,3.51
2023-02-02T02:09:34.474Z,3.48
2023-02-02T02:10:34.472Z,3.46
2023-02-02T02:11:34.476Z,3.42
2023-02-02T02:12:34.435Z,3.40
2023-02-02T02:13:34.439Z,3.39
2023-02-02T02:14:34.412Z,3.39
2023-02-02T02:15:34.390Z,3.40
2023-02-02T02:16:34.428Z,3.41
2023-02-02T02:17:34.373Z,3.42
2023-02-02T02:18:34.385Z,3.42
2023-02-02T02:19:34.379Z,3.43
2023-02-02T02:20:34.333Z,3.44
2023-02-02T02:21:34.312Z,3.46
2023-02-02T02:22:34.307Z,3.48
2023-02-02T02:23:34.302Z,3.49
2023-02-02T02:24:34.436Z,3.50
2023-02-02T02:25:34.280Z,3.50
2023-02-02T02:26:34.336Z,3.50
2023-02-02T02:27:34.235Z,3.52
2023-02-02T02:28:34.223Z,3.55
2023-02-02T02:29:34.201Z,3.58
2023-02-02T02:30:34.280Z,3.60
2023-02-02T02:31:34.304Z,3.63
2023-02-02T02:32:34.197Z,3.66
2023-02-02T02:33:34.165Z,3.69
2023-02-02T02:34:34.175Z,3.70
2023-02-02T02:35:34.142Z,3.70
2023-02-02T02:36:34.139Z,3.72
2023-02-02T02:37:34.138Z,3.74
2023-02-02T02:38:34.098Z,3.76
2023-02-02T02:39:34.090Z,3.76
2023-02-02T02:40:34.081Z,3.75
2023-02-02T02:41:34.054Z,3.74
2023-02-02T02:42:34.041Z,3.74
2023-02-02T02:43:34.021Z,3.74
2023-02-02T02:44:34.035Z,3.74
2023-02-02T02:45:34.005Z,3.74
2023-02-02T02:46:34.030Z,3.74
2023-02-02T02:47:33.975Z,3.73
2023-02-02T02:48:33.970Z,3.73
2023-02-02T02:49:33.943Z,3.74
2023-02-02T02:50:33.934Z,3.76
2023-02-02T02:51:34.042Z,3.77
2023-02-02T02:52:33.905Z,3.78
2023-02-02T02:53:33.892Z,3.79
2023-02-02T02:54:33.888Z,3.79
2023-02-02T02:55:33.875Z,3.80
2023-02-02T02:56:33.934Z,3.80
2023-02-02T02:57:33.866Z,3.79
2023-02-02T02:58:33.835Z,3.78
2023-02-02T02:59:33.838Z,3.77
2023-02-02T03:00:33.805Z,3.77
2023-02-02T03:01:33.794Z,3.77
2023-02-02T03:02:33.830Z,3.79
2023-02-02T03:03:33.802Z,3.82
2023-02-02T03:04:33.776Z,3.84
2023-02-02T03:05:33.731Z,3.85
2023-02-02T03:06:33.759Z,3.86
2023-02-02T03:07:33.728Z,3.85
2023-02-02T03:08:33.723Z,3.85
2023-02-02T03:09:33.722Z,3.84
2023-02-02T03:10:33.687Z,3.82
2023-02-02T03:11:33.663Z,3.80
2023-02-02T03:12:33.657Z,3.78
2023-02-02T03:13:33.646Z,3.79
2023-02-02T03:14:33.617Z,3.82
2023-02-02T03:15:33.652Z,3.84
2023-02-02T03:16:33.607Z,3.87
2023-02-02T03:17:33.599Z,3.91
2023-02-02T03:18:33.576Z,3.95
2023-02-02T03:19:33.590Z,3.97
2023-02-02T03:20:33.566Z,3.97
2023-02-02T03:21:33.548Z,3.97
2023-02-02T03:22:33.527Z,3.98
2023-02-02T03:23:33.510Z,3.99
2023-02-02T03:24:33.505Z,4.01
2023-02-02T03:25:33.476Z,4.01
2023-02-02T03:26:33.498Z,4.01
2023-02-02T03:27:33.454Z,4.01
2023-02-02T03:28:33.438Z,4.01
2023-02-02T03:29:33.449Z,4.02
2023-02-02T03:30:33.475Z,4.01
2023-02-02T03:31:33.585Z,4.00
2023-02-02T03:32:33.377Z,4.01
2023-02-02T03:33:33.383Z,4.03
2023-02-02T03:34:33.383Z,4.06
2023-02-02T03:35:33.365Z,4.08
2023-02-02T03:36:33.335Z,4.10
2023-02-02T03:37:33.345Z,4.11
2023-02-02T03:38:33.316Z,4.12
2023-02-02T03:39:33.314Z,4.12
2023-02-02T03:40:33.292Z,4.11
2023-02-02T03:41:33.266Z,4.09
2023-02-02T03:42:33.287Z,4.07
2023-02-02T03:43:33.260Z,4.04
2023-02-02T03:44:33.272Z,4.02
2023-02-02T03:45:33.229Z,4.02
2023-02-02T03:46:33.227Z,4.01
2023-02-02T03:47:33.186Z,4.01
2023-02-02T03:48:33.169Z,4.02
2023-02-02T03:49:33.191Z,4.03
2023-02-02T03:50:33.173Z,4.03
2023-02-02T03:51:33.156Z,4.03
2023-02-02T03:52:33.137Z,4.03
2023-02-02T03:53:33.110Z,4.02
2023-02-02T03:54:33.087Z,4.00
2023-02-02T03:55:33.089Z,3.98
2023-02-02T03:56:33.059Z,3.98
2023-02-02T03:57:33.065Z,3.97
2023-02-02T03:58:33.052Z,3.96
2023-02-02T03:59:33.060Z,3.96
2023-02-02T04:00:33.025Z,3.98
2023-02-02T04:01:33.067Z,4.00
2023-02-02T04:02:33.019Z,4.02
2023-02-02T04:03:33.004Z,4.03
2023-02-02T04:04:32.971Z,4.04
2023-02-02T04:05:32.987Z,4.06
2023-02-02T04:06:32.932Z,4.06
2023-02-02T04:07:32.942Z,4.06
2023-02-02T04:08:32.918Z,4.06
2023-02-02T04:09:32.928Z,4.06
2023-02-02T04:10:32.907Z,4.05
2023-02-02T04:11:32.896Z,4.04
2023-02-02T04:12:32.868Z,4.02
2023-02-02T04:13:32.846Z,4.00
2023-02-02T04:14:32.869Z,3.99
2023-02-02T04:15:32.863Z,4.00
2023-02-02T04:16:32.854Z,4.00
2023-02-02T04:17:32.816Z,3.99
2023-02-02T04:18:32.784Z,3.97
2023-02-02T04:19:32.800Z,3.97
2023-02-02T04:20:32.855Z,3.99
2023-02-02T04:21:32.902Z,4.00
2023-02-02T04:22:32.758Z,4.01
2023-02-02T04:23:32.749Z,4.01
2023-02-02T04:24:32.716Z,4.02
2023-02-02T04:25:32.711Z,4.03
2023-02-02T04:26:32.754Z,4.03
2023-02-02T04:27:32.695Z,4.02
2023-02-02T04:28:32.650Z,4.03
2023-02-02T04:29:32.670Z,4.03
2023-02-02T04:30:32.655Z,4.03
2023-02-02T04:31:32.611Z,4.01
2023-02-02T04:32:32.615Z,4.00
2023-02-02T04:33:32.610Z,4.01
2023-02-02T04:34:32.585Z,4.02
2023-02-02T04:35:32.577Z,4.02
2023-02-02T04:36:32.571Z,4.01
2023-02-02T04:37:32.569Z,3.99
2023-02-02T04:38:32.518Z,3.97
2023-02-02T04:39:32.519Z,3.96
2023-02-02T04:40:32.492Z,3.95
2023-02-02T04:41:32.479Z,3.93
2023-02-02T04:42:32.475Z,3.90
2023-02-02T04:43:32.451Z,3.87
2023-02-02T04:44:32.442Z,3.85
2023-02-02T04:45:32.465Z,3.84
2023-02-02T04:46:32.426Z,3.83
2023-02-02T04:47:32.407Z,3.84
2023-02-02T04:48:32.389Z,3.85
2023-02-02T04:49:32.382Z,3.88
2023-02-02T04:50:32.380Z,3.92
2023-02-02T04:51:32.353Z,3.95
2023-02-02T04:52:32.335Z,3.98
2023-02-02T04:53:32.338Z,3.98
2023-02-02T04:54:32.302Z,3.98
2023-02-02T04:55:32.299Z,3.97
2023-02-02T04:56:32.283Z,3.97
2023-02-02T04:57:32.265Z,3.98
2023-02-02T04:58:32.273Z,4.00
2023-02-02T04:59:32.268Z,4.02
2023-02-02T05:00:32.226Z,4.04
2023-02-02T05:01:32.246Z,4.05
2023-02-02T05:02:32.215Z,4.05
2023-02-02T05:03:32.198Z,4.05
2023-02-02T05:04:32.319Z,4.05
2023-02-02T05:05:32.183Z,4.06
2023-02-02T05:06:32.205Z,4.07
2023-02-02T05:07:32.161Z,4.06
2023-02-02T05:08:32.136Z,4.06
2023-02-02T05:09:32.111Z,4.06
2023-02-02T05:10:32.121Z,4.06
2023-02-02T05:11:32.093Z,4.05
2023-02-02T05:12:32.100Z,4.05
2023-02-02T05:13:32.071Z,4.04
2023-02-02T05:14:32.068Z,4.03
2023-02-02T05:15:32.056Z,4.02
2023-02-02T05:16:32.053Z,4.02
2023-02-02T05:17:32.041Z,4.01
2023-02-02T05:18:31.989Z,3.99
2023-02-02T05:19:32.001Z,3.97
2023-02-02T05:20:31.961Z,3.94
2023-02-02T05:21:31.975Z,3.93
2023-02-02T05:22:31.968Z,3.92
2023-02-02T05:23:31.942Z,3.90
2023-02-02T05:24:31.949Z,3.88
2023-02-02T05:25:31.899Z,3.86
2023-02-02T05:26:31.961Z,3.85
2023-02-02T05:27:31.895Z,3.84
2023-02-02T05:28:31.868Z,3.83
2023-02-02T05:29:31.860Z,3.80
2023-02-02T05:30:33.548Z,3.78
2023-02-02T05:31:31.890Z,3.78
2023-02-02T05:32:31.827Z,3.76
2023-02-02T05:33:31.819Z,3.74
2023-02-02T05:34:31.793Z,3.69
2023-02-02T05:35:31.780Z,3.65
2023-02-02T05:36:31.774Z,3.62
2023-02-02T05:37:31.747Z,3.59
2023-02-02T05:38:31.738Z,3.58
2023-02-02T05:39:31.719Z,3.57
2023-02-02T05:40:31.719Z,3.56
2023-02-02T05:41:31.694Z,3.54
2023-02-02T05:42:31.673Z,3.53
2023-02-02T05:43:31.719Z,3.53
2023-02-02T05:44:31.668Z,3.55
2023-02-02T05:45:31.637Z,3.57
2023-02-02T05:46:31.622Z,3.57
2023-02-02T05:47:31.625Z,3.57
2023-02-02T05:48:31.597Z,3.56
2023-02-02T05:49:31.597Z,3.55
2023-02-02T05:50:31.585Z,3.54
2023-02-02T05:51:31.595Z,3.54
2023-02-02T05:52:31.555Z,3.57
2023-02-02T05:53:31.536Z,3.60
2023-02-02T05:54:31.514Z,3.62
2023-02-02T05:55:31.522Z,3.64
2023-02-02T05:56:31.509Z,3.67
2023-02-02T05:57:31.510Z,3.70
2023-02-02T05:58:31.462Z,3.72
2023-02-02T05:59:31.454Z,3.74
2023-02-02T06:00:31.457Z,3.75
2023-02-02T06:01:31.451Z,3.76
2023-02-02T06:02:31.415Z,3.77
2023-02-02T06:03:31.593Z,3.77
2023-02-02T06:04:31.406Z,3.76
2023-02-02T06:05:31.409Z,3.76
2023-02-02T06:06:31.392Z,3.78
2023-02-02T06:07:31.356Z,3.80
2023-02-02T06:08:31.327Z,3.82
2023-02-02T06:09:31.341Z,3.84
2023-02-02T06:10:31.308Z,3.85
2023-02-02T06:11:31.299Z,3.85
2023-02-02T06:12:31.304Z,3.86
2023-02-02T06:13:31.271Z,3.88
2023-02-02T06:14:31.265Z,3.89
2023-02-02T06:15:31.300Z,3.90
2023-02-02T06:16:31.256Z,3.91
2023-02-02T06:17:31.235Z,3.91
2023-02-02T06:18:31.214Z,3.91
2023-02-02T06:19:31.209Z,3.90
2023-02-02T06:20:31.192Z,3.90
2023-02-02T06:21:31.195Z,3.91
2023-02-02T06:22:31.186Z,3.93
2023-02-02T06:23:31.138Z,3.93
2023-02-02T06:24:31.131Z,3.93
2023-02-02T06:25:31.129Z,3.93
2023-02-02T06:26:31.135Z,3.94
2023-02-02T06:27:31.102Z,3.95
2023-02-02T06:28:31.132Z,3.96
2023-02-02T06:29:31.072Z,3.96
2023-02-02T06:30:31.061Z,3.97
2023-02-02T06:31:31.132Z,3.97
2023-02-02T06:32:31.038Z,3.98
2023-02-02T06:33:31.009Z,3.97
2023-02-02T06:34:31.014Z,3.95
2023-02-02T06:35:31.003Z,3.94
2023-02-02T06:36:30.987Z,3.92
2023-02-02T06:37:30.973Z,3.92
2023-02-02T06:38:30.943Z,3.91
2023-02-02T06:39:30.946Z,3.90
2023-02-02T06:40:30.934Z,3.89
2023-02-02T06:41:30.896Z,3.88
2023-02-02T06:42:30.896Z,3.86
2023-02-02T06:43:30.891Z,3.84
2023-02-02T06:44:30.860Z,3.81
2023-02-02T06:45:30.873Z,3.78
2023-02-02T06:46:30.907Z,3.75
2023-02-02T06:47:30.830Z,3.73
2023-02-02T06:48:30.844Z,3.72
2023-02-02T06:49:30.807Z,3.75
2023-02-02T06:50:30.815Z,3.80
2023-02-02T06:51:30.771Z,3.84
2023-02-02T06:52:30.768Z,3.86
2023-02-02T06:53:30.801Z,3.86
2023-02-02T06:54:30.748Z,3.86
2023-02-02T06:55:30.751Z,3.87
2023-02-02T06:56:30.723Z,3.87
2023-02-02T06:57:30.696Z,3.86
2023-02-02T06:58:30.689Z,3.86
2023-02-02T06:59:30.664Z,3.86
2023-02-02T07:00:30.736Z,3.86
2023-02-02T07:01:30.675Z,3.86
2023-02-02T07:02:30.639Z,3.85
2023-02-02T07:03:30.626Z,3.83
2023-02-02T07:04:30.614Z,3.82
2023-02-02T07:05:31.156Z,3.81
2023-02-02T07:06:30.590Z,3.81
2023-02-02T07:07:30.574Z,3.82
2023-02-02T07:08:30.546Z,3.84
2023-02-02T07:09:30.536Z,3.85
2023-02-02T07:11:11.027Z,3.86
2023-02-02T07:11:30.598Z,3.85
2023-02-02T07:12:30.496Z,3.83
2023-02-02T07:13:30.503Z,3.82
2023-02-02T07:14:30.466Z,3.82
2023-02-02T07:15:30.461Z,3.83
2023-02-02T07:16:30.458Z,3.84
2023-02-02T07:17:30.450Z,3.84
2023-02-02T07:18:30.419Z,3.83
2023-02-02T07:19:30.420Z,3.82
2023-02-02T07:20:30.396Z,3.82
2023-02-02T07:21:30.417Z,3.83
2023-02-02T07:22:30.378Z,3.84
2023-02-02T07:23:30.348Z,3.85
2023-02-02T07:24:30.349Z,3.87
2023-02-02T07:25:30.338Z,3.88
2023-02-02T07:26:30.342Z,3.89
2023-02-02T07:27:30.303Z,3.90
2023-02-02T07:28:30.306Z,3.90
2023-02-02T07:29:30.294Z,3.91
2023-02-02T07:30:30.309Z,3.91
2023-02-02T07:31:30.373Z,3.91
2023-02-02T07:32:30.265Z,3.93
2023-02-02T07:33:30.235Z,3.95
2023-02-02T07:34:30.236Z,3.97
2023-02-02T07:35:30.195Z,3.99
2023-02-02T07:36:30.197Z,4.01
2023-02-02T07:37:30.164Z,4.01
2023-02-02T07:38:30.190Z,4.01
2023-02-02T07:39:30.144Z,4.01
2023-02-02T07:40:30.142Z,4.00
2023-02-02T07:41:30.118Z,4.00
2023-02-02T07:42:30.106Z,3.98
2023-02-02T07:43:30.084Z,3.95
2023-02-02T07:44:30.083Z,3.90
2023-02-02T07:45:30.076Z,3.85
2023-02-02T07:46:30.093Z,3.81
2023-02-02T07:47:30.039Z,3.78
2023-02-02T07:48:30.029Z,3.78
2023-02-02T07:49:30.014Z,3.79
2023-02-02T07:50:30.009Z,3.80
2023-02-02T07:51:29.976Z,3.79
2023-02-02T07:52:29.983Z,3.79
2023-02-02T07:53:29.967Z,3.79
2023-02-02T07:54:29.973Z,3.82
2023-02-02T07:55:30.250Z,3.86
2023-02-02T07:56:29.914Z,3.89
2023-02-02T07:57:29.910Z,3.90
2023-02-02T07:58:29.907Z,3.91
2023-02-02T07:59:32.211Z,3.92
2023-02-02T08:00:29.884Z,3.93
2023-02-02T08:01:29.884Z,3.94
2023-02-02T08:02:29.896Z,3.95
2023-02-02T08:03:29.819Z,3.96
2023-02-02T08:04:29.842Z,4.00
2023-02-02T08:05:29.806Z,4.04
2023-02-02T08:06:29.841Z,4.10
2023-02-02T08:07:29.784Z,4.17
2023-02-02T08:08:29.767Z,4.25
2023-02-02T08:09:29.744Z,4.36
2023-02-02T08:10:29.747Z,4.46
2023-02-02T08:11:29.730Z,4.53
2023-02-02T08:12:29.721Z,4.56
2023-02-02T08:13:29.711Z,4.56
2023-02-02T08:14:29.690Z,4.52
2023-02-02T08:15:29.686Z,4.46
2023-02-02T08:16:29.903Z,4.41
2023-02-02T08:17:29.637Z,4.36
2023-02-02T08:18:29.631Z,4.35
2023-02-02T08:19:29.638Z,4.38
2023-02-02T08:20:29.602Z,4.42
2023-02-02T08:21:29.614Z,4.48
2023-02-02T08:22:29.579Z,4.55
2023-02-02T08:23:29.584Z,4.57
2023-02-02T08:24:29.551Z,4.55
2023-02-02T08:25:29.551Z,4.62
2023-02-02T08:26:29.683Z,4.80
2023-02-02T08:27:29.505Z,4.89
2023-02-02T08:28:29.532Z,4.84
2023-02-02T08:29:29.485Z,4.79
2023-02-02T08:30:29.475Z,4.83
2023-02-02T08:31:29.520Z,4.91
2023-02-02T08:32:29.467Z,5.06
2023-02-02T08:33:29.435Z,5.15
2023-02-02T08:34:29.416Z,5.21
2023-02-02T08:35:29.395Z,5.28
2023-02-02T08:36:29.433Z,5.39
2023-02-02T08:37:29.396Z,5.58
2023-02-02T08:38:29.433Z,5.79
2023-02-02T08:39:29.345Z,5.95
2023-02-02T08:40:29.411Z,6.07
2023-02-02T08:41:29.389Z,6.13
2023-02-02T08:42:29.337Z,5.94
2023-02-02T08:43:29.335Z,5.69
2023-02-02T08:44:45.884Z,5.51
2023-02-02T08:46:08.130Z,5.43
2023-02-02T08:46:29.405Z,5.43
2023-02-02T08:47:29.248Z,5.43
2023-02-02T08:48:29.240Z,5.38
2023-02-02T08:49:29.224Z,5.23
2023-02-02T08:50:29.233Z,5.10
2023-02-02T08:51:29.196Z,5.00
2023-02-02T08:52:29.179Z,4.91
2023-02-02T08:53:29.198Z,4.85
2023-02-02T08:54:29.159Z,4.87
2023-02-02T08:55:29.133Z,5.03
2023-02-02T08:56:29.175Z,5.33
2023-02-02T08:57:29.124Z,5.68
2023-02-02T08:58:29.132Z,5.98
2023-02-02T08:59:29.098Z,6.21
2023-02-02T09:00:29.142Z,6.38
2023-02-02T09:01:29.108Z,6.43
2023-02-02T09:02:29.069Z,6.54
2023-02-02T09:03:29.042Z,6.66
2023-02-02T09:04:29.030Z,6.70
2023-02-02T09:05:29.019Z,6.55
2023-02-02T09:06:29.000Z,6.31
2023-02-02T09:07:28.975Z,6.22
2023-02-02T09:08:29.099Z,6.28
2023-02-02T09:09:28.955Z,6.42
2023-02-02T09:10:28.983Z,6.56
2023-02-02T09:11:28.941Z,6.46
2023-02-02T09:12:28.941Z,6.17
2023-02-02T09:13:28.903Z,5.97
2023-02-02T09:14:28.923Z,6.04
2023-02-02T09:15:28.913Z,6.12
2023-02-02T09:16:28.921Z,6.02
2023-02-02T09:17:28.872Z,5.87
2023-02-02T09:18:28.864Z,5.74
2023-02-02T09:19:28.861Z,5.61
2023-02-02T09:20:28.828Z,5.49
2023-02-02T09:21:28.807Z,5.41
2023-02-02T09:22:29.034Z,5.37
2023-02-02T09:23:28.775Z,5.35
2023-02-02T09:24:28.780Z,5.35
2023-02-02T09:25:28.778Z,5.39
2023-02-02T09:26:28.843Z,5.42
2023-02-02T09:27:28.719Z,5.41
2023-02-02T09:28:28.698Z,5.37
2023-02-02T09:29:28.711Z,5.36
2023-02-02T09:30:28.701Z,5.36
2023-02-02T09:31:28.713Z,5.33
2023-02-02T09:32:28.675Z,5.27
2023-02-02T09:33:28.636Z,5.24
2023-02-02T09:34:28.645Z,5.26
2023-02-02T09:35:28.634Z,5.33
2023-02-02T09:36:28.650Z,5.44
2023-02-02T09:37:28.593Z,5.49
2023-02-02T09:38:28.583Z,5.46
2023-02-02T09:39:28.587Z,5.43
2023-02-02T09:40:28.533Z,5.41
2023-02-02T09:41:28.557Z,5.37
2023-02-02T09:42:28.531Z,5.33
2023-02-02T09:43:28.494Z,5.30
2023-02-02T09:44:28.512Z,5.26
2023-02-02T09:45:28.487Z,5.24
2023-02-02T09:46:28.460Z,5.24
2023-02-02T09:47:28.530Z,5.28
2023-02-02T09:48:28.430Z,5.36
2023-02-02T09:49:28.411Z,5.39
2023-02-02T09:50:28.416Z,5.37
2023-02-02T09:51:28.397Z,5.32
2023-02-02T09:52:28.396Z,5.26
2023-02-02T09:53:28.384Z,5.25
2023-02-02T09:54:28.372Z,5.35
2023-02-02T09:55:28.359Z,5.48
2023-02-02T09:56:28.360Z,5.65
2023-02-02T09:57:28.347Z,5.98
2023-02-02T09:58:28.336Z,6.43
2023-02-02T09:59:28.368Z,6.73
2023-02-02T10:00:28.327Z,6.64
2023-02-02T10:01:28.336Z,6.36
2023-02-02T10:02:28.262Z,6.17
2023-02-02T10:03:28.349Z,6.05
2023-02-02T10:04:28.245Z,6.01
2023-02-02T10:05:28.206Z,6.03
2023-02-02T10:06:28.204Z,5.99
2023-02-02T10:07:28.178Z,6.01
2023-02-02T10:08:34.661Z,6.24
2023-02-02T10:09:28.181Z,6.58
2023-02-02T10:10:28.169Z,6.76
2023-02-02T10:11:28.147Z,6.69
2023-02-02T10:12:28.142Z,6.49
2023-02-02T10:13:28.102Z,6.25
2023-02-02T10:14:28.145Z,6.00
2023-02-02T10:15:28.250Z,5.81
2023-02-02T10:16:28.051Z,5.69
2023-02-02T10:17:28.058Z,5.61
2023-02-02T10:18:28.074Z,5.59
2023-02-02T10:19:28.023Z,5.59
2023-02-02T10:20:28.307Z,5.66
2023-02-02T10:21:28.008Z,5.73
2023-02-02T10:22:27.982Z,5.73
2023-02-02T10:23:27.958Z,5.71
2023-02-02T10:24:27.979Z,5.73
2023-02-02T10:25:27.944Z,5.76
2023-02-02T10:26:27.956Z,5.78
2023-02-02T10:27:27.916Z,5.87
2023-02-02T10:28:27.897Z,6.01
2023-02-02T10:29:29.295Z,6.12
2023-02-02T10:30:28.019Z,6.14
2023-02-02T10:31:27.939Z,6.09
2023-02-02T10:32:27.860Z,5.99
2023-02-02T10:33:27.817Z,5.86
2023-02-02T10:34:27.836Z,5.74
2023-02-02T10:35:27.828Z,5.63
2023-02-02T10:36:27.818Z,5.59
2023-02-02T10:37:27.771Z,5.60
2023-02-02T10:38:27.778Z,5.64
2023-02-02T10:39:27.743Z,5.67
2023-02-02T10:40:28.103Z,5.63
2023-02-02T10:41:27.725Z,5.56
2023-02-02T10:42:27.754Z,5.48
2023-02-02T10:43:27.698Z,5.41
2023-02-02T10:44:27.695Z,5.36
2023-02-02T10:45:27.798Z,5.33
2023-02-02T10:46:27.776Z,5.30
2023-02-02T10:47:27.670Z,5.27
2023-02-02T10:48:27.720Z,5.25
2023-02-02T10:49:27.626Z,5.27
2023-02-02T10:50:28.246Z,5.39
2023-02-02T10:51:27.638Z,5.50
2023-02-02T10:52:27.636Z,5.51
2023-02-02T10:53:27.618Z,5.50
2023-02-02T10:54:27.589Z,5.52
2023-02-02T10:55:27.587Z,5.73
2023-02-02T10:56:27.691Z,6.01
2023-02-02T10:57:27.522Z,6.34
2023-02-02T10:58:27.586Z,6.60
2023-02-02T10:59:27.486Z,6.73
2023-02-02T11:00:28.000Z,6.77
2023-02-02T11:01:27.532Z,6.68
2023-02-02T11:02:27.522Z,6.55
2023-02-02T11:03:27.479Z,6.43
2023-02-02T11:04:27.446Z,6.39
2023-02-02T11:05:27.444Z,6.35
2023-02-02T11:06:27.466Z,6.26
2023-02-02T11:07:27.401Z,6.18
2023-02-02T11:08:27.401Z,6.11
2023-02-02T11:09:27.392Z,6.03
2023-02-02T11:10:27.664Z,5.95
2023-02-02T11:11:27.330Z,5.88
2023-02-02T11:12:27.353Z,5.85
2023-02-02T11:13:27.337Z,5.85
2023-02-02T11:14:27.299Z,5.83
2023-02-02T11:15:27.280Z,5.79
2023-02-02T11:16:38.877Z,5.76
2023-02-02T11:17:27.269Z,5.75
2023-02-02T11:18:27.390Z,5.76
2023-02-02T11:19:27.212Z,5.76
2023-02-02T11:20:27.362Z,5.77
2023-02-02T11:21:27.209Z,5.78
2023-02-02T11:22:27.190Z,5.80
2023-02-02T11:23:27.180Z,5.83
2023-02-02T11:24:27.159Z,5.85
2023-02-02T11:25:27.158Z,5.84
2023-02-02T11:26:27.146Z,5.83
2023-02-02T11:27:27.113Z,5.83
2023-02-02T11:28:27.144Z,5.82
2023-02-02T11:29:27.076Z,5.81
2023-02-02T11:30:27.238Z,5.79
2023-02-02T11:31:27.207Z,5.83
2023-02-02T11:32:27.048Z,6.05
2023-02-02T11:33:27.038Z,6.30
2023-02-02T11:34:27.041Z,6.47
2023-02-02T11:35:27.036Z,6.55
2023-02-02T11:36:27.033Z,6.56
2023-02-02T11:37:26.974Z,6.51
2023-02-02T11:38:26.982Z,6.40
2023-02-02T11:39:26.993Z,6.29
2023-02-02T11:40:27.201Z,6.31
2023-02-02T11:41:26.946Z,6.41
2023-02-02T11:42:26.935Z,6.48
2023-02-02T11:43:26.912Z,6.48
2023-02-02T11:44:26.886Z,6.49
2023-02-02T11:45:26.887Z,6.52
2023-02-02T11:46:26.923Z,6.56
2023-02-02T11:47:26.853Z,6.57
2023-02-02T11:48:26.926Z,6.54
2023-02-02T11:49:26.829Z,6.48
2023-02-02T11:50:27.071Z,6.41
2023-02-02T11:51:26.870Z,6.34
2023-02-02T11:52:26.798Z,6.31
2023-02-02T11:53:26.795Z,6.32
2023-02-02T11:54:26.747Z,6.34
2023-02-02T11:55:26.867Z,6.34
2023-02-02T11:56:26.746Z,6.29
2023-02-02T11:57:26.705Z,6.26
2023-02-02T11:58:26.706Z,6.22
2023-02-02T11:59:26.692Z,6.15
2023-02-02T12:00:27.236Z,6.09
2023-02-02T12:01:26.748Z,6.07
2023-02-02T12:02:26.651Z,6.09
2023-02-02T12:03:26.627Z,6.09
2023-02-02T12:04:26.798Z,6.13
2023-02-02T12:05:26.615Z,6.20
2023-02-02T12:06:26.601Z,6.25
2023-02-02T12:07:26.615Z,6.26
2023-02-02T12:08:26.570Z,6.25
2023-02-02T12:09:26.546Z,6.26
2023-02-02T12:10:26.842Z,6.28
2023-02-02T12:11:26.526Z,6.30
2023-02-02T12:12:26.511Z,6.26
2023-02-02T12:13:26.502Z,6.20
2023-02-02T12:14:26.482Z,6.13
2023-02-02T12:15:26.480Z,6.07
2023-02-02T12:16:26.516Z,6.01
2023-02-02T12:17:26.457Z,5.96
2023-02-02T12:18:26.438Z,5.94
2023-02-02T12:19:26.430Z,5.86
2023-02-02T12:20:26.805Z,5.74
2023-02-02T12:21:26.402Z,5.62
2023-02-02T12:22:26.404Z,5.51
2023-02-02T12:23:26.405Z,5.40
2023-02-02T12:24:26.339Z,5.27
2023-02-02T12:25:26.945Z,5.11
2023-02-02T12:26:26.350Z,4.92
2023-02-02T12:27:26.322Z,4.75
2023-02-02T12:28:26.312Z,4.60
2023-02-02T12:29:26.290Z,4.46
2023-02-02T12:30:26.672Z,4.36
2023-02-02T12:31:26.333Z,4.28
2023-02-02T12:32:26.244Z,4.22
2023-02-02T12:33:26.232Z,4.17
2023-02-02T12:34:26.216Z,4.11
2023-02-02T12:35:26.285Z,4.04
2023-02-02T12:36:26.192Z,3.96
2023-02-02T12:37:26.200Z,3.88
2023-02-02T12:38:26.196Z,3.80
2023-02-02T12:39:26.174Z,3.74
2023-02-02T12:40:26.493Z,3.70
2023-02-02T12:41:26.120Z,3.70
2023-02-02T12:42:26.137Z,3.71
2023-02-02T12:43:26.120Z,3.74
2023-02-02T12:44:26.093Z,3.79
2023-02-02T12:45:26.134Z,3.84
2023-02-02T12:46:26.064Z,3.87
2023-02-02T12:47:26.049Z,3.89
2023-02-02T12:48:26.055Z,3.92
2023-02-02T12:49:26.036Z,3.96
2023-02-02T12:50:26.322Z,4.01
2023-02-02T12:51:26.023Z,4.06
2023-02-02T12:52:25.988Z,4.11
2023-02-02T12:53:25.973Z,4.16
2023-02-02T12:54:34.761Z,4.19
2023-02-02T12:55:25.960Z,4.23
2023-02-02T12:56:25.967Z,4.27
2023-02-02T12:57:25.931Z,4.31
2023-02-02T12:58:25.907Z,4.34
2023-02-02T12:59:25.883Z,4.36
2023-02-02T13:00:26.291Z,4.39
2023-02-02T13:01:25.944Z,4.41
2023-02-02T13:02:25.859Z,4.43
2023-02-02T13:03:25.851Z,4.45
2023-02-02T13:04:25.825Z,4.47
2023-02-02T13:05:25.817Z,4.49
2023-02-02T13:06:25.822Z,4.52
2023-02-02T13:07:25.797Z,4.55
2023-02-02T13:08:25.760Z,4.58
2023-02-02T13:09:25.785Z,4.61
2023-02-02T13:10:26.054Z,4.63
2023-02-02T13:11:25.741Z,4.65
2023-02-02T13:12:25.744Z,4.68
2023-02-02T13:13:25.711Z,4.70
2023-02-02T13:14:25.691Z,4.72
2023-02-02T13:15:25.675Z,4.73
2023-02-02T13:16:25.957Z,4.75
2023-02-02T13:17:25.670Z,4.77
2023-02-02T13:18:25.655Z,4.79